Time;durP1;ratioP1;P1;durP2;ratioP2;P2;SDS_P1;SDS_P2;PMS_P1;PMS_P2;Temp;Humidity;BMP_temperature;BMP_pressure;BME280_temperature;BME280_humidity;BME280_pressure;Samples;Min_cycle;Max_cycle;Signal;HPM_P1;HPM_P2
2022/04/22 00:01:54;;;;;;;9.27;8.27;;;;;;;12.54;64.73;101007.38;4990152;28;103885;-48
2022/04/22 00:04:21;;;;;;;9.38;8.32;;;;;;;12.54;65.04;101019.09;4994165;28;103774;-48
2022/04/22 00:06:52;;;;;;;8.57;6.93;;;;;;;12.54;64.99;101019.09;5001211;27;102396;-50
2022/04/22 00:09:18;;;;;;;9.33;7.30;;;;;;;12.54;64.98;101010.91;5007143;28;102156;-51
2022/04/22 00:11:46;;;;;;;8.77;7.20;;;;;;;12.55;65.06;101014.47;5004116;28;103961;-48
2022/04/22 00:14:12;;;;;;;9.02;7.80;;;;;;;12.54;64.95;101013.66;4990831;28;101946;-50
2022/04/22 00:16:39;;;;;;;9.68;6.60;;;;;;;12.53;65.03;101017.47;4995800;28;102798;-49
2022/04/22 00:19:06;;;;;;;9.20;7.25;;;;;;;12.54;65.20;101012.84;5003132;28;103314;-52
2022/04/22 00:21:37;;;;;;;8.13;7.32;;;;;;;12.53;64.85;101012.03;4993893;28;104124;-49
2022/04/22 00:24:05;;;;;;;7.93;7.13;;;;;;;12.56;64.97;101016.13;5005365;27;102366;-50
2022/04/22 00:26:33;;;;;;;9.60;7.30;;;;;;;12.54;64.94;101010.91;5026791;27;102125;-49
2022/04/22 00:29:01;;;;;;;8.20;7.40;;;;;;;12.55;64.88;101014.47;5000256;27;102172;-48
2022/04/22 00:31:31;;;;;;;8.80;7.28;;;;;;;12.53;64.92;101012.03;5000768;28;103923;-48
2022/04/22 00:33:58;;;;;;;8.65;6.78;;;;;;;12.54;65.02;101013.66;5007171;27;102501;-48
2022/04/22 00:36:25;;;;;;;7.35;6.65;;;;;;;12.54;64.83;101005.47;5007313;28;102351;-48
2022/04/22 00:38:53;;;;;;;7.60;6.70;;;;;;;12.54;64.92;101008.19;5004411;28;103756;-49
2022/04/22 00:41:23;;;;;;;9.25;7.43;;;;;;;12.54;64.98;101013.66;5006979;28;104351;-48
2022/04/22 00:43:50;;;;;;;8.15;7.03;;;;;;;12.55;64.94;101000.81;5008322;28;102706;-49
2022/04/22 00:46:19;;;;;;;7.28;6.57;;;;;;;12.55;65.03;101006.28;4997094;28;102980;-49
2022/04/22 00:48:46;;;;;;;8.18;6.93;;;;;;;12.55;64.90;101009.84;4992639;28;102256;-48
2022/04/22 00:51:13;;;;;;;8.50;6.60;;;;;;;12.54;65.07;101013.66;5000633;28;103949;-48
2022/04/22 00:53:42;;;;;;;7.10;6.35;;;;;;;12.55;64.95;101015.31;4999549;27;102379;-49
2022/04/22 00:56:10;;;;;;;6.93;6.18;;;;;;;12.54;64.95;101018.28;5006102;27;102700;-49
2022/04/22 00:58:59;;;;;;;8.45;6.82;;;;;;;12.55;65.12;101019.91;5009511;28;102693;-49
2022/04/22 01:01:26;;;;;;;7.68;6.65;;;;;;;12.55;65.04;101012.56;5005859;28;103741;-48
2022/04/22 01:09:47;;;;;;;7.13;6.30;;;;;;;12.54;65.10;101013.66;5005811;28;102399;-49
2022/04/22 01:12:14;;;;;;;7.70;6.32;;;;;;;12.55;65.10;101009.84;5006304;28;104228;-48
2022/04/22 01:14:44;;;;;;;7.78;6.63;;;;;;;12.54;65.09;101010.91;5005366;27;102284;-50
2022/04/22 01:17:11;;;;;;;9.13;6.30;;;;;;;12.53;65.08;101012.03;5005692;27;102518;-49
2022/04/22 01:19:38;;;;;;;7.72;6.63;;;;;;;12.54;65.08;101013.66;5009374;27;101981;-48
2022/04/22 01:22:08;;;;;;;7.65;6.53;;;;;;;12.54;64.91;101019.09;5026365;27;103480;-48
2022/04/22 01:24:35;;;;;;;8.13;6.68;;;;;;;12.55;65.19;101019.91;5017297;27;102387;-50
2022/04/22 01:27:05;;;;;;;7.15;5.90;;;;;;;12.54;65.10;101024.56;5024322;27;102470;-48
2022/04/22 01:29:32;;;;;;;8.15;6.25;;;;;;;12.55;65.14;101026.22;5027937;27;102389;-48
2022/04/22 01:32:00;;;;;;;8.20;6.03;;;;;;;12.54;65.15;101013.66;5015043;27;104092;-49
2022/04/22 01:34:27;;;;;;;9.30;6.88;;;;;;;12.55;65.12;101020.75;5020929;27;102408;-48
2022/04/22 01:36:53;;;;;;;7.63;6.57;;;;;;;12.55;65.02;101025.38;5015053;27;102268;-50
2022/04/22 01:39:23;;;;;;;6.78;6.00;;;;;;;12.55;64.98;101018.03;5025552;27;102458;-48
2022/04/22 01:41:50;;;;;;;;;;;;;;;12.55;65.00;101026.22;5022404;27;104205;-48
2022/04/22 01:44:19;;;;;;;7.00;6.22;;;;;;;12.55;65.17;101023.50;5021837;27;102503;-49
2022/04/22 01:46:45;;;;;;;8.88;6.07;;;;;;;12.55;65.01;101023.50;5026332;27;102500;-49
2022/04/22 01:49:17;;;;;;;7.00;6.30;;;;;;;12.55;64.99;101019.91;5026163;27;102401;-49
2022/04/22 01:51:44;;;;;;;7.05;6.35;;;;;;;12.56;65.05;101021.56;5021637;27;104099;-48
2022/04/22 01:54:17;;;;;;;6.97;6.00;;;;;;;12.55;65.05;101020.75;5015751;27;102822;-49
2022/04/22 01:56:46;;;;;;;6.85;6.07;;;;;;;12.54;65.14;101013.66;5022373;27;102607;-48
2022/04/22 01:59:13;;;;;;;7.03;6.33;;;;;;;12.55;65.12;101020.75;5025739;27;102460;-49
2022/04/22 02:01:40;;;;;;;6.85;5.82;;;;;;;12.55;65.05;101028.94;5021962;27;104111;-48
2022/04/22 02:04:10;;;;;;;6.47;5.82;;;;;;;12.55;65.12;101025.38;5016438;27;102054;-49
2022/04/22 02:06:39;;;;;;;6.95;6.25;;;;;;;12.55;65.15;101018.03;5021311;27;102422;-49
2022/04/22 02:09:05;;;;;;;7.05;6.32;;;;;;;12.55;65.37;101018.03;5029121;27;102328;-50
2022/04/22 02:11:32;;;;;;;6.55;5.95;;;;;;;12.54;65.33;101019.09;5009650;27;103930;-50
2022/04/22 02:14:00;;;;;;;6.70;5.93;;;;;;;12.55;65.17;100998.91;5035565;27;102161;-50
2022/04/22 02:16:26;;;;;;;7.53;6.40;;;;;;;12.55;65.08;101009.84;5018445;27;102542;-50
2022/04/22 02:18:53;;;;;;;8.80;6.20;;;;;;;12.55;65.23;101009.84;5011083;27;102084;-49
2022/04/22 02:21:21;;;;;;;7.28;5.88;;;;;;;12.55;65.12;101007.13;5002151;27;103933;-51
2022/04/22 02:23:51;;;;;;;6.93;5.95;;;;;;;12.55;65.11;101009.00;4995199;27;101999;-48
2022/04/22 02:26:18;;;;;;;7.47;6.22;;;;;;;12.55;65.75;101014.47;4991781;27;102327;-51
2022/04/22 02:28:44;;;;;;;6.43;5.82;;;;;;;12.54;65.19;101019.09;5008691;27;102831;-49
2022/04/22 02:31:12;;;;;;;6.70;6.03;;;;;;;12.55;65.22;101025.38;4993489;27;103942;-48
2022/04/22 02:33:40;;;;;;;8.43;6.20;;;;;;;12.56;64.98;101027.03;5003319;27;102240;-48
2022/04/22 02:36:08;;;;;;;7.55;6.68;;;;;;;12.54;65.35;101038.22;5005482;27;102084;-49
2022/04/22 02:38:35;;;;;;;8.23;6.30;;;;;;;12.56;65.23;101027.03;5002855;27;102278;-49
2022/04/22 02:46:40;;;;;;;7.25;6.40;;;;;;;12.55;65.14;101031.69;5025432;27;102631;-49
2022/04/22 02:49:06;;;;;;;6.55;5.95;;;;;;;12.55;65.24;101026.22;5012803;27;102387;-49
2022/04/22 02:51:33;;;;;;;6.57;5.97;;;;;;;12.55;65.13;101037.16;5002924;28;103970;-49
2022/04/22 02:54:04;;;;;;;7.15;6.07;;;;;;;12.55;65.16;101036.31;4995625;28;101837;-50
2022/04/22 02:56:31;;;;;;;6.97;6.22;;;;;;;12.54;65.27;101040.94;5005359;28;101913;-52
2022/04/22 02:59:00;;;;;;;7.50;6.07;;;;;;;12.53;65.30;101039.31;4997441;28;102428;-51
2022/04/22 03:01:27;;;;;;;7.22;6.53;;;;;;;12.55;65.26;101039.88;5003121;28;103943;-49
2022/04/22 03:03:55;;;;;;;6.50;5.90;;;;;;;12.55;65.17;101045.34;4999121;28;102468;-49
2022/04/22 03:06:24;;;;;;;7.32;6.47;;;;;;;12.55;65.26;101039.88;5010040;27;102521;-50
2022/04/22 03:08:51;;;;;;;7.05;6.35;;;;;;;12.55;65.25;101037.16;5007868;27;102146;-48
2022/04/22 03:11:21;;;;;;;7.15;6.30;;;;;;;12.55;65.33;101041.75;5005269;27;104059;-49
2022/04/22 03:13:49;;;;;;;8.02;6.10;;;;;;;12.54;65.17;101035.50;5012980;27;102705;-49
2022/04/22 03:16:17;;;;;;;7.45;6.47;;;;;;;12.54;65.15;101046.41;5001989;27;107221;-49
2022/04/22 03:19:03;;;;;;;7.50;6.63;;;;;;;12.54;65.04;101042.88;5010198;27;102067;-49
2022/04/22 03:21:30;;;;;;;8.33;6.43;;;;;;;12.54;65.03;101046.41;5001018;27;104037;-49
2022/04/22 03:23:57;;;;;;;8.05;6.80;;;;;;;12.54;65.15;101042.88;5005904;27;102609;-49
2022/04/22 03:26:24;;;;;;;6.85;6.15;;;;;;;12.55;65.09;101047.22;5009553;27;102305;-49
2022/04/22 03:28:52;;;;;;;7.55;6.85;;;;;;;12.54;65.19;101046.41;5009962;27;102591;-49
2022/04/22 03:31:27;;;;;;;9.35;7.20;;;;;;;12.53;65.21;101050.25;5006138;27;104309;-49
2022/04/22 03:33:54;;;;;;;8.60;6.65;;;;;;;12.54;65.08;101061.97;5009240;27;102453;-49
2022/04/22 03:36:22;;;;;;;9.63;6.82;;;;;;;12.52;65.10;101048.63;4998909;27;102474;-50
2022/04/22 03:38:48;;;;;;;7.45;6.75;;;;;;;12.52;65.19;101054.06;5003157;27;102251;-48
2022/04/22 03:41:14;;;;;;;10.32;6.88;;;;;;;12.53;65.39;101054.88;5015726;27;104128;-48
2022/04/22 03:43:41;;;;;;;9.80;7.22;;;;;;;12.53;64.87;101052.97;5008983;27;102183;-48
2022/04/22 03:46:15;;;;;;;;;;;;;;;12.53;65.20;101055.69;5008714;27;102359;-49
2022/04/22 03:48:41;;;;;;;8.98;7.22;;;;;;;12.52;65.42;101054.06;5007788;28;102225;-49
2022/04/22 03:51:10;;;;;;;9.13;7.10;;;;;;;12.52;65.18;101054.06;5017688;28;106752;-50
2022/04/22 03:53:41;;;;;;;8.77;7.05;;;;;;;12.52;65.37;101054.06;4999968;27;102801;-49
2022/04/22 03:58:59;;;;;;;8.48;7.60;;;;;;;12.52;65.21;101054.06;4998105;27;102437;-49
2022/04/22 04:01:26;;;;;;;8.27;7.32;;;;;;;12.52;65.46;101058.72;5024340;27;103830;-48
2022/04/22 04:03:52;;;;;;;9.70;7.85;;;;;;;12.52;65.23;101062.25;5024158;27;102123;-49
2022/04/22 04:06:20;;;;;;;9.35;7.38;;;;;;;12.53;64.90;101065.81;5019660;27;102667;-49
2022/04/22 04:17:17;;;;;;;9.23;7.47;;;;;;;12.54;65.01;101067.44;5006079;27;102250;-49
2022/04/22 04:25:17;;;;;;;7.57;6.60;;;;;;;12.55;64.97;101080.81;5000948;28;102485;-49
2022/04/22 04:27:46;;;;;;;7.95;7.15;;;;;;;12.55;64.86;101071.78;5018094;27;102340;-49
2022/04/22 04:30:19;;;;;;;8.50;7.05;;;;;;;12.55;64.83;101075.38;5022895;27;102875;-48
2022/04/22 04:32:47;;;;;;;10.85;7.35;;;;;;;12.56;64.94;101076.19;5017829;27;103988;-49
2022/04/22 04:35:14;;;;;;;8.98;7.45;;;;;;;12.56;64.68;101087.09;5008484;27;102350;-48
2022/04/22 04:37:41;;;;;;;12.00;8.02;;;;;;;12.55;64.72;101086.28;4995687;28;102302;-48
2022/04/22 04:40:09;;;;;;;10.73;7.30;;;;;;;12.55;64.91;101085.44;5002641;27;102564;-50
2022/04/22 04:42:37;;;;;;;10.13;7.72;;;;;;;12.54;64.95;101090.09;5004717;27;103832;-49
2022/04/22 04:45:08;;;;;;;7.88;6.88;;;;;;;12.54;65.08;101079.16;5004164;27;102382;-49
2022/04/22 04:47:40;;;;;;;8.83;7.50;;;;;;;12.54;65.25;101079.16;4992308;27;102361;-48
2022/04/22 04:50:08;;;;;;;8.70;7.78;;;;;;;12.55;65.36;101089.03;4998045;28;102262;-48
2022/04/22 04:52:37;;;;;;;9.63;7.28;;;;;;;12.54;65.09;101078.34;4989435;28;104212;-49
2022/04/22 04:55:04;;;;;;;9.07;7.78;;;;;;;12.55;64.94;101089.03;4998225;28;102693;-48
2022/04/22 04:57:31;;;;;;;8.57;7.67;;;;;;;12.55;64.89;101089.03;5004943;27;102298;-48
2022/04/22 04:59:59;;;;;;;8.35;7.47;;;;;;;12.54;65.08;101079.16;5005285;27;102509;-50
2022/04/22 05:02:26;;;;;;;9.73;7.30;;;;;;;12.55;65.25;101077.25;5003693;28;104118;-50
2022/04/22 05:04:53;;;;;;;8.75;7.22;;;;;;;12.55;65.35;101085.44;5000982;28;102617;-50
2022/04/22 05:07:47;;;;;;;10.10;7.70;;;;;;;12.55;65.08;101091.75;5000455;28;102592;-49
2022/04/22 05:10:15;;;;;;;8.18;7.18;;;;;;;12.56;65.58;101103.47;5004448;28;102501;-49
2022/04/22 05:12:42;;;;;;;13.15;8.15;;;;;;;12.55;65.23;101108.13;5011125;27;104136;-50
2022/04/22 05:15:11;;;;;;;10.40;7.60;;;;;;;12.55;65.15;101097.22;5010384;27;102663;-50
2022/04/22 05:17:40;;;;;;;7.70;6.90;;;;;;;12.55;65.04;101096.38;4998113;28;102262;-49
2022/04/22 05:20:11;;;;;;;11.60;7.60;;;;;;;12.55;65.14;101094.47;4998911;28;102512;-49
2022/04/22 05:22:54;;;;;;;9.68;7.38;;;;;;;12.56;65.36;101104.28;5003406;28;104135;-48
2022/04/22 05:25:22;;;;;;;9.73;6.80;;;;;;;12.56;64.99;101107.03;4997142;28;102517;-50
2022/04/22 05:27:49;;;;;;;;;;;;;;;12.56;65.19;101112.47;5003494;28;102686;-49
2022/04/22 05:33:04;;;;;;;8.07;6.80;;;;;;;12.57;64.94;101121.50;5004229;28;103910;-51
2022/04/22 05:35:33;;;;;;;7.93;6.90;;;;;;;12.58;65.04;101120.38;5001061;28;102548;-49
2022/04/22 05:38:01;;;;;;;9.02;7.15;;;;;;;12.57;65.15;101124.22;5002680;28;102015;-50
2022/04/22 05:40:30;;;;;;;7.97;6.93;;;;;;;12.58;65.02;101123.94;5003405;28;102325;-47
2022/04/22 05:42:57;;;;;;;7.53;6.82;;;;;;;12.58;65.13;101129.41;4998755;28;104141;-48
2022/04/22 05:45:28;;;;;;;6.60;5.90;;;;;;;12.59;64.80;101136.50;4999637;28;102564;-48
2022/04/22 05:47:56;;;;;;;6.32;5.30;;;;;;;12.60;64.92;101134.59;5002803;27;102414;-48
2022/04/22 05:50:42;;;;;;;7.68;6.68;;;;;;;12.59;64.90;101128.31;5005791;27;102265;-49
2022/04/22 05:53:09;;;;;;;5.97;5.47;;;;;;;12.60;64.88;101132.69;5023353;27;103815;-48
2022/04/22 05:55:37;;;;;;;7.70;5.65;;;;;;;12.60;65.07;101127.22;5029242;27;102857;-49
2022/04/22 05:58:04;;;;;;;7.00;5.70;;;;;;;12.61;65.01;101134.31;5022807;27;102401;-48
2022/04/22 06:00:35;;;;;;;6.38;5.78;;;;;;;12.61;64.79;101134.31;5014901;27;102543;-49
2022/04/22 06:03:20;;;;;;;8.05;5.75;;;;;;;12.63;64.96;101140.31;5028255;27;104025;-49
2022/04/22 06:05:46;;;;;;;7.80;6.25;;;;;;;12.63;64.92;101148.53;5028950;27;102136;-50
2022/04/22 06:11:17;;;;;;;8.35;5.85;;;;;;;12.65;64.73;101153.69;5020118;27;102798;-49
2022/04/22 06:13:47;;;;;;;;;;;;;;;12.65;64.84;101153.69;5025688;27;103910;-50
2022/04/22 06:16:15;;;;;;;8.43;6.78;;;;;;;12.65;64.76;101140.84;5023707;27;102422;-49
2022/04/22 06:18:42;;;;;;;6.57;5.97;;;;;;;12.65;64.76;101151.78;5019198;27;102026;-49
2022/04/22 06:21:09;;;;;;;6.70;5.85;;;;;;;12.65;64.91;101154.50;5028066;27;102626;-48
2022/04/22 06:23:35;;;;;;;6.15;5.55;;;;;;;12.66;64.76;101152.63;5020198;27;104164;-48
2022/04/22 06:26:02;;;;;;;8.55;6.00;;;;;;;12.66;64.88;101153.44;5027392;27;102691;-49
2022/04/22 06:28:28;;;;;;;7.28;6.07;;;;;;;12.66;64.92;101152.63;5011699;27;102310;-50
2022/04/22 06:30:55;;;;;;;6.53;5.78;;;;;;;12.66;64.91;101158.91;5015882;27;102339;-48
2022/04/22 06:33:43;;;;;;;6.80;6.07;;;;;;;12.67;64.86;101157.78;5031914;27;107834;-48
2022/04/22 06:36:13;;;;;;;6.68;5.50;;;;;;;12.68;64.74;101159.44;5047240;27;102144;-48
2022/04/22 06:38:44;;;;;;;5.90;5.30;;;;;;;12.68;64.78;101161.34;5028187;27;102211;-50
2022/04/22 06:46:48;;;;;;;6.20;5.28;;;;;;;12.69;64.90;101169.28;5001768;27;104658;-50
2022/04/22 06:49:18;;;;;;;6.72;5.57;;;;;;;12.69;64.82;101169.28;5007023;28;103170;-48
2022/04/22 06:51:45;;;;;;;7.47;5.95;;;;;;;12.70;64.93;101167.38;5000773;28;102499;-49
2022/04/22 06:54:12;;;;;;;7.30;5.93;;;;;;;12.70;64.85;101164.63;5002835;27;103958;-48
2022/04/22 06:56:40;;;;;;;7.78;5.45;;;;;;;12.70;64.79;101168.19;5009095;28;102763;-48
2022/04/22 06:59:08;;;;;;;7.43;5.50;;;;;;;12.70;64.44;101164.63;4996726;27;102034;-48
2022/04/22 07:01:36;;;;;;;5.67;4.83;;;;;;;12.70;64.75;101170.91;5010018;27;102591;-48
2022/04/22 07:04:03;;;;;;;5.97;5.20;;;;;;;12.71;64.57;101178.00;5007213;28;104012;-48
2022/04/22 07:06:36;;;;;;;8.55;5.72;;;;;;;12.71;64.53;101172.53;5004373;27;102428;-48
2022/04/22 07:09:04;;;;;;;10.70;6.40;;;;;;;12.73;64.66;101192.22;4998179;27;102576;-48
2022/04/22 07:11:34;;;;;;;8.65;5.28;;;;;;;12.72;64.81;101204.22;4999525;28;102770;-51
2022/04/22 07:14:05;;;;;;;7.50;5.72;;;;;;;12.72;64.55;101203.38;4997075;28;104200;-49
2022/04/22 07:16:31;;;;;;;6.15;5.40;;;;;;;12.72;64.64;101206.94;5002090;27;102553;-48
2022/04/22 07:19:05;;;;;;;6.10;5.50;;;;;;;12.72;64.73;101192.47;5007979;28;102375;-50
2022/04/22 07:21:36;;;;;;;6.60;5.90;;;;;;;12.72;64.67;101196.00;5007924;28;104289;-49
2022/04/22 07:24:05;;;;;;;8.43;5.70;;;;;;;12.71;64.82;101194.38;5005209;28;104289;-49
2022/04/22 07:26:32;;;;;;;8.40;5.93;;;;;;;12.72;64.76;101196.00;5006464;27;103009;-49
2022/04/22 07:29:01;;;;;;;7.78;5.45;;;;;;;12.71;64.87;101204.50;5024777;27;103108;-49
2022/04/22 07:31:31;;;;;;;9.88;5.57;;;;;;;12.72;64.99;101203.38;5030420;27;102591;-49
2022/04/22 07:33:58;;;;;;;7.88;5.82;;;;;;;12.72;64.72;101208.84;5023945;27;108102;-52
2022/04/22 07:36:26;;;;;;;8.70;6.78;;;;;;;12.71;64.87;101205.31;5003341;27;102247;-51
2022/04/22 07:38:54;;;;;;;8.73;6.43;;;;;;;12.70;65.07;101209.13;5003831;27;102491;-51
2022/04/22 07:41:27;;;;;;;6.82;6.13;;;;;;;12.71;64.84;101213.50;5003550;27;102487;-51
2022/04/22 07:46:48;;;;;;;7.85;6.80;;;;;;;12.70;64.94;101211.06;5006352;27;102363;-50
2022/04/22 07:49:16;;;;;;;6.60;5.93;;;;;;;12.70;64.95;101206.41;5002314;27;102625;-49
2022/04/22 07:51:43;;;;;;;8.57;6.25;;;;;;;12.70;64.65;101206.41;5002947;27;102771;-50
2022/04/22 07:54:12;;;;;;;6.95;6.25;;;;;;;12.70;64.74;101197.41;5009682;27;104020;-48
2022/04/22 07:56:41;;;;;;;6.67;6.07;;;;;;;12.70;64.83;101192.75;5022779;27;102664;-49
2022/04/22 07:59:08;;;;;;;8.70;5.97;;;;;;;12.70;64.88;101195.47;5020192;27;102391;-49
2022/04/22 08:01:35;;;;;;;7.43;6.38;;;;;;;12.70;64.82;101192.75;5005327;27;102488;-48
2022/04/22 08:04:03;;;;;;;8.00;6.18;;;;;;;12.70;64.88;101186.47;5003267;27;104547;-51
2022/04/22 08:06:30;;;;;;;9.45;6.38;;;;;;;12.70;64.96;101186.47;4996467;27;102546;-49
2022/04/22 08:08:56;;;;;;;7.53;5.93;;;;;;;12.70;64.75;101187.28;5002631;28;102013;-48
2022/04/22 08:11:28;;;;;;;6.00;5.45;;;;;;;12.70;64.92;101190.03;5005479;28;106642;-49
2022/04/22 08:13:55;;;;;;;8.80;6.75;;;;;;;12.70;64.86;101192.75;5000725;27;104095;-48
2022/04/22 08:16:21;;;;;;;7.65;6.88;;;;;;;12.70;64.96;101187.28;5012774;27;102647;-48
2022/04/22 08:18:52;;;;;;;7.85;5.80;;;;;;;12.69;64.85;101182.94;4991064;28;102456;-48
2022/04/22 08:21:19;;;;;;;7.93;6.68;;;;;;;12.69;64.83;101185.66;5008451;28;102492;-48
2022/04/22 08:23:46;;;;;;;8.25;6.32;;;;;;;12.70;64.88;101176.38;4995289;27;103726;-51
2022/04/22 08:26:15;;;;;;;8.95;6.63;;;;;;;12.70;64.89;101176.38;4998275;27;103302;-48
2022/04/22 08:28:44;;;;;;;9.30;6.55;;;;;;;12.69;64.83;101180.19;5002791;27;102345;-48
2022/04/22 08:31:10;;;;;;;7.15;6.25;;;;;;;12.70;64.82;101175.56;4993173;28;102335;-49
2022/04/22 08:33:47;;;;;;;7.70;6.25;;;;;;;12.70;64.74;101187.28;5007045;28;103984;-49
2022/04/22 08:36:13;;;;;;;8.93;6.47;;;;;;;12.70;64.76;101181.00;5009070;27;102508;-49
2022/04/22 08:38:43;;;;;;;8.52;6.63;;;;;;;12.70;64.77;101184.56;5004947;28;102417;-49
2022/04/22 08:41:10;;;;;;;7.18;6.10;;;;;;;12.69;64.86;101177.47;5006560;27;102386;-51
2022/04/22 08:43:38;;;;;;;6.07;5.47;;;;;;;12.70;64.93;101179.09;5006645;28;104076;-48
2022/04/22 08:49:58;;;;;;;6.78;5.63;;;;;;;12.70;64.89;101173.63;4998875;28;102154;-48
2022/04/22 08:51:50;;;;;;;10.38;5.75;;;;;;;12.71;64.95;101171.72;4998431;28;102296;-50
2022/04/22 08:54:20;;;;;;;6.68;6.00;;;;;;;12.70;64.98;101170.91;4993362;28;103871;-47
2022/04/22 08:56:47;;;;;;;6.68;5.78;;;;;;;12.70;64.99;101170.91;5003092;28;102459;-48
2022/04/22 08:59:13;;;;;;;6.15;5.50;;;;;;;12.70;64.86;101168.19;5001887;28;102244;-50
2022/04/22 09:01:43;;;;;;;7.55;5.28;;;;;;;12.71;64.96;101167.06;4996637;28;102362;-49
2022/04/22 09:04:09;;;;;;;6.97;5.57;;;;;;;12.71;64.85;101167.06;5006154;28;103928;-48
2022/04/22 09:06:37;;;;;;;6.82;5.82;;;;;;;12.72;64.91;101174.16;5003008;28;102389;-48
2022/04/22 09:09:05;;;;;;;6.55;5.88;;;;;;;12.70;64.74;101170.91;5001879;28;102443;-49
2022/04/22 09:11:36;;;;;;;9.73;6.18;;;;;;;12.71;64.76;101174.44;5008331;28;102601;-48
2022/04/22 09:14:07;;;;;;;6.97;6.25;;;;;;;12.71;64.83;101174.44;5006720;27;103878;-49
2022/04/22 09:16:33;;;;;;;8.25;5.85;;;;;;;12.71;64.80;101172.53;5003167;28;102299;-48
2022/04/22 09:19:03;;;;;;;7.05;5.85;;;;;;;12.71;64.66;101171.72;4991960;28;102369;-48
2022/04/22 09:21:34;;;;;;;7.75;6.40;;;;;;;12.72;65.27;101179.63;5004814;28;102205;-48
2022/04/22 09:24:11;;;;;;;9.10;6.65;;;;;;;12.71;64.89;101177.19;5007007;28;104626;-48
2022/04/22 09:26:38;;;;;;;6.25;5.60;;;;;;;12.71;64.96;101183.47;5007522;28;102164;-49
2022/04/22 09:29:06;;;;;;;7.18;5.65;;;;;;;12.72;64.76;101174.16;5001643;28;102286;-49
2022/04/22 09:31:46;;;;;;;8.52;6.28;;;;;;;12.72;64.72;101170.63;4993565;28;105985;-49
2022/04/22 09:34:14;;;;;;;7.40;5.68;;;;;;;12.71;64.85;101188.91;4996450;28;104055;-49
2022/04/22 09:45:03;;;;;;;;;;;;;;;12.72;64.75;101184.28;4995887;28;103958;-49
2022/04/22 09:47:32;;;;;;;5.65;5.10;;;;;;;12.71;64.89;101188.91;4993255;28;102391;-48
2022/04/22 09:50:10;;;;;;;7.93;5.70;;;;;;;12.73;64.83;101186.75;5004877;28;102339;-49
2022/04/22 09:52:43;;;;;;;6.28;5.50;;;;;;;12.73;64.88;101189.47;5018739;27;102439;-49
2022/04/22 09:55:16;;;;;;;5.70;5.03;;;;;;;12.73;64.84;101197.66;5000874;28;104004;-49
2022/04/22 09:57:56;;;;;;;9.57;5.78;;;;;;;12.72;64.74;101187.00;5001770;28;102776;-50
2022/04/22 10:00:24;;;;;;;6.53;5.60;;;;;;;12.72;64.71;101196.00;4999649;28;102499;-48
2022/04/22 10:02:53;;;;;;;6.35;5.50;;;;;;;12.73;64.73;101202.31;5009171;28;102445;-49
2022/04/22 10:05:22;;;;;;;6.32;5.47;;;;;;;12.73;64.63;101203.13;5005981;28;103897;-50
2022/04/22 10:07:51;;;;;;;9.15;5.82;;;;;;;12.74;64.99;101206.69;5004075;28;102018;-49
2022/04/22 10:10:28;;;;;;;5.63;5.03;;;;;;;12.73;64.81;101208.59;5003276;28;102298;-49
2022/04/22 10:13:16;;;;;;;6.53;5.28;;;;;;;12.73;64.70;101208.59;4991349;27;102317;-49
2022/04/22 10:15:45;;;;;;;7.00;5.70;;;;;;;12.73;64.66;101210.50;5005316;28;103562;-50
2022/04/22 10:18:20;;;;;;;7.28;4.97;;;;;;;12.73;64.99;101219.53;4997139;28;102360;-49
2022/04/22 10:20:48;;;;;;;6.20;5.18;;;;;;;12.75;64.64;101221.97;5007335;28;102519;-52
2022/04/22 10:23:15;;;;;;;6.90;5.50;;;;;;;12.74;64.82;101220.34;5005412;27;102413;-49
2022/04/22 10:25:43;;;;;;;5.75;5.25;;;;;;;12.72;64.55;101223.31;5005071;28;104120;-50
2022/04/22 10:28:15;;;;;;;7.45;5.50;;;;;;;12.73;64.89;101219.53;4996995;28;102727;-48
2022/04/22 10:30:43;;;;;;;6.57;5.90;;;;;;;12.73;64.60;101224.97;4996791;27;102229;-49
2022/04/22 10:33:10;;;;;;;5.38;4.90;;;;;;;12.73;64.92;101230.44;4997006;28;102335;-48
2022/04/22 10:36:01;;;;;;;7.90;5.00;;;;;;;12.75;64.73;101227.44;5007462;27;104704;-49
2022/04/22 10:38:29;;;;;;;5.93;4.93;;;;;;;12.73;64.81;101224.97;5009269;28;102297;-48
2022/04/22 10:40:56;;;;;;;5.40;4.90;;;;;;;12.75;64.75;101227.44;5007392;27;102354;-48
2022/04/22 10:43:27;;;;;;;6.63;4.93;;;;;;;12.75;64.60;101228.25;5014298;27;102585;-50
2022/04/22 10:48:40;;;;;;;6.10;5.50;;;;;;;12.75;64.63;101230.97;5007575;27;102438;-49
2022/04/22 10:51:09;;;;;;;7.68;5.28;;;;;;;12.75;64.46;101217.31;4993228;27;102529;-49
2022/04/22 10:53:46;;;;;;;8.48;5.55;;;;;;;12.75;64.64;101217.31;5009616;27;102596;-50
2022/04/22 10:56:33;;;;;;;5.57;5.07;;;;;;;12.75;64.66;101214.59;4994397;27;103875;-48
2022/04/22 10:59:28;;;;;;;5.47;4.97;;;;;;;12.77;64.50;101218.97;5000518;28;102602;-49
2022/04/22 11:01:57;;;;;;;9.90;6.03;;;;;;;12.75;64.56;101211.84;5021080;27;102513;-50
2022/04/22 11:04:27;;;;;;;8.40;5.65;;;;;;;12.77;64.42;101216.25;5007252;28;102850;-48
2022/04/22 11:06:56;;;;;;;5.53;4.97;;;;;;;12.77;64.49;101194.41;4991668;27;104177;-49
2022/04/22 11:09:25;;;;;;;7.72;5.00;;;;;;;12.77;64.53;101199.84;5006221;27;102570;-51
2022/04/22 11:11:52;;;;;;;7.83;5.50;;;;;;;12.77;64.67;101208.88;4992816;28;102586;-49
2022/04/22 11:14:20;;;;;;;7.70;5.43;;;;;;;12.77;64.63;101197.13;5006846;27;102521;-48
2022/04/22 11:16:54;;;;;;;8.25;5.32;;;;;;;12.78;64.58;101193.28;5000952;28;103890;-49
2022/04/22 11:19:26;;;;;;;10.43;5.40;;;;;;;12.77;64.41;101197.13;5008614;27;104808;-48
2022/04/22 11:21:57;;;;;;;9.23;5.65;;;;;;;12.77;64.38;101187.03;5001801;27;101911;-49
2022/04/22 11:24:25;;;;;;;7.95;5.05;;;;;;;12.77;64.43;101197.13;4999500;27;102753;-49
2022/04/22 11:27:03;;;;;;;8.55;5.75;;;;;;;12.77;64.60;101194.41;5003361;27;103874;-49
2022/04/22 11:29:30;;;;;;;7.45;5.13;;;;;;;12.75;64.40;101184.53;4999016;28;102294;-49
2022/04/22 11:32:12;;;;;;;9.50;5.53;;;;;;;12.77;64.62;101191.66;5000365;27;104334;-48
2022/04/22 11:34:59;;;;;;;7.88;5.18;;;;;;;12.77;64.52;101202.59;5010368;27;102580;-48
2022/04/22 11:37:27;;;;;;;6.28;5.10;;;;;;;12.77;64.46;101205.31;4999028;27;103904;-49
2022/04/22 11:39:54;;;;;;;8.13;5.18;;;;;;;12.77;64.40;101202.59;5018749;27;102204;-49
2022/04/22 11:42:44;;;;;;;7.25;5.10;;;;;;;12.76;64.46;101196.28;5025497;27;102467;-52
2022/04/22 11:45:13;;;;;;;6.53;5.30;;;;;;;12.76;64.54;101190.81;5008408;27;102461;-51
2022/04/22 11:47:42;;;;;;;6.05;4.68;;;;;;;12.75;64.49;101195.47;5006883;27;106913;-50
2022/04/22 11:50:10;;;;;;;10.45;5.68;;;;;;;12.76;64.48;101196.28;5004191;27;102488;-50
2022/04/22 11:52:37;;;;;;;7.82;5.13;;;;;;;12.77;64.51;101197.13;5007583;27;102292;-49
2022/04/22 11:55:05;;;;;;;8.15;5.22;;;;;;;12.74;64.50;101199.31;5010178;27;102340;-48
2022/04/22 11:57:34;;;;;;;6.35;5.30;;;;;;;12.76;64.80;101196.28;4995899;27;103872;-51
2022/04/22 12:05:42;;;;;;;7.53;5.75;;;;;;;12.75;64.14;101191.91;5002305;27;102448;-50
2022/04/22 12:08:13;;;;;;;7.40;6.10;;;;;;;12.75;64.43;101190.00;5008250;27;103959;-48
2022/04/22 12:10:39;;;;;;;8.02;5.40;;;;;;;12.73;63.99;101173.09;5007057;27;102436;-50
2022/04/22 12:13:06;;;;;;;10.10;5.32;;;;;;;12.75;64.32;101173.63;5003578;28;102329;-49
2022/04/22 12:15:39;;;;;;;8.52;5.50;;;;;;;12.73;64.46;101159.44;5009188;27;102226;-49
2022/04/22 12:18:25;;;;;;;7.18;5.68;;;;;;;12.73;64.43;101164.91;5001889;27;104059;-48
2022/04/22 12:20:52;;;;;;;8.30;5.72;;;;;;;12.73;64.40;101164.09;5001639;28;102117;-52
2022/04/22 12:23:21;;;;;;;6.95;5.15;;;;;;;12.72;64.38;101157.78;5007850;28;102363;-49
2022/04/22 12:25:56;;;;;;;7.43;5.18;;;;;;;12.72;64.30;101160.50;5006416;28;102394;-49
2022/04/22 12:28:26;;;;;;;7.32;5.65;;;;;;;12.72;64.34;101157.78;4993313;28;104084;-50
2022/04/22 12:30:53;;;;;;;6.07;5.07;;;;;;;12.73;64.28;101164.09;5002795;28;102578;-49